Time,TemperatureF,DewpointF,PressureIn,WindDirection,WindDirectionDegrees,WindSpeedMPH,WindSpeedGustMPH,Humidity,HourlyPrecipIn,Conditions,Clouds,dailyrainin,SolarRadiationWatts/m^2,SoftwareType,DateUTC
2013-05-05 00:14:00,41.0,35.0,30.35,South,170,0.0,2.0,78,0.00,,,0.00,0,weatherlink.com 1.10,2013-05-05 04:14:00,
2013-05-05 00:29:00,40.7,34.0,30.35,South,170,1.0,3.0,78,0.00,,,0.00,0,weatherlink.com 1.10,2013-05-05 04:29:00,
2013-05-05 00:45:00,41.0,34.0,30.35,South,170,0.0,3.0,77,0.00,,,0.00,0,weatherlink.com 1.10,2013-05-05 04:45:00,
2013-05-05 01:00:00,40.4,34.0,30.35,South,170,0.0,3.0,78,0.00,,,0.00,0,weatherlink.com 1.10,2013-05-05 05:00:00,
2013-05-05 01:15:00,40.2,34.0,30.34,South,170,0.0,3.0,77,0.00,,,0.00,0,weatherlink.com 1.10,2013-05-05 05:15:00,
2013-05-05 01:30:00,40.0,33.0,30.34,South,170,0.0,2.0,76,0.00,,,0.00,0,weatherlink.com 1.10,2013-05-05 05:30:00,
2013-05-05 01:45:00,40.8,30.0,30.34,South,170,3.0,5.0,65,0.00,,,0.00,0,weatherlink.com 1.10,2013-05-05 05:45:00,
2013-05-05 02:00:00,41.0,30.0,30.34,South,170,5.0,6.0,64,0.00,,,0.00,0,weatherlink.com 1.10,2013-05-05 06:00:00,
2013-05-05 02:15:00,41.3,29.0,30.33,South,170,2.0,5.0,63,0.00,,,0.00,0,weatherlink.com 1.10,2013-05-05 06:15:00,
2013-05-05 02:30:00,39.8,29.0,30.33,South,170,2.0,3.0,66,0.00,,,0.00,0,weatherlink.com 1.10,2013-05-05 06:30:00,
2013-05-05 02:45:00,39.8,31.0,30.33,South,170,3.0,4.0,70,0.00,,,0.00,0,weatherlink.com 1.10,2013-05-05 06:45:00,
2013-05-05 03:00:00,39.6,32.0,30.33,South,170,3.0,4.0,73,0.00,,,0.00,0,weatherlink.com 1.10,2013-05-05 07:00:00,
2013-05-05 03:15:00,39.7,31.0,30.33,South,170,3.0,3.0,72,0.00,,,0.00,0,weatherlink.com 1.10,2013-05-05 07:15:00,
2013-05-05 03:30:00,39.1,30.0,30.33,South,170,1.0,2.0,70,0.00,,,0.00,0,weatherlink.com 1.10,2013-05-05 07:30:00,
2013-05-05 03:45:00,40.5,30.0,30.33,South,170,3.0,3.0,66,0.00,,,0.00,0,weatherlink.com 1.10,2013-05-05 07:45:00,
2013-05-05 04:00:00,40.8,30.0,30.32,South,170,2.0,3.0,66,0.00,,,0.00,0,weatherlink.com 1.10,2013-05-05 08:00:00,
2013-05-05 04:15:00,40.8,30.0,30.32,South,170,0.0,3.0,65,0.00,,,0.00,0,weatherlink.com 1.10,2013-05-05 08:15:00,
2013-05-05 04:30:00,40.7,30.0,30.32,South,170,0.0,2.0,65,0.00,,,0.00,0,weatherlink.com 1.10,2013-05-05 08:30:00,
2013-05-05 04:45:00,40.6,30.0,30.32,South,170,0.0,3.0,65,0.00,,,0.00,0,weatherlink.com 1.10,2013-05-05 08:45:00,
2013-05-05 05:00:00,40.7,30.0,30.32,South,170,2.0,3.0,65,0.00,,,0.00,0,weatherlink.com 1.10,2013-05-05 09:00:00,
2013-05-05 05:15:00,40.8,29.0,30.32,South,170,1.0,2.0,64,0.00,,,0.00,0,weatherlink.com 1.10,2013-05-05 09:15:00,
2013-05-05 05:30:00,40.4,30.0,30.32,South,170,0.0,0.0,66,0.00,,,0.00,5,weatherlink.com 1.10,2013-05-05 09:30:00,
2013-05-05 05:45:00,40.0,30.0,30.32,South,170,0.0,1.0,67,0.00,,,0.00,11,weatherlink.com 1.10,2013-05-05 09:45:00,
2013-05-05 06:00:00,40.5,30.0,30.32,SSE,162,0.0,3.0,66,0.00,,,0.00,21,weatherlink.com 1.10,2013-05-05 10:00:00,
2013-05-05 06:15:00,40.6,30.0,30.33,SSE,162,0.0,3.0,65,0.00,,,0.00,33,weatherlink.com 1.10,2013-05-05 10:15:00,
2013-05-05 06:30:00,40.1,29.0,30.33,SSE,162,0.0,1.0,66,0.00,,,0.00,62,weatherlink.com 1.10,2013-05-05 10:30:00,
2013-05-05 06:45:00,41.2,30.0,30.33,SSE,162,0.0,1.0,64,0.00,,,0.00,88,weatherlink.com 1.10,2013-05-05 10:45:00,
2013-05-05 07:00:00,41.9,30.0,30.33,SSE,162,0.0,1.0,63,0.00,,,0.00,162,weatherlink.com 1.10,2013-05-05 11:00:00,
2013-05-05 07:15:00,43.1,30.0,30.33,SSE,162,0.0,0.0,61,0.00,,,0.00,232,weatherlink.com 1.10,2013-05-05 11:15:00,
2013-05-05 07:30:00,43.6,30.0,30.33,SSE,162,0.0,1.0,60,0.00,,,0.00,278,weatherlink.com 1.10,2013-05-05 11:30:00,
2013-05-05 07:45:00,42.8,30.0,30.33,SSE,162,3.0,4.0,62,0.00,,,0.00,302,weatherlink.com 1.10,2013-05-05 11:45:00,
2013-05-05 08:00:00,45.2,32.0,30.34,SSE,162,0.0,3.0,60,0.00,,,0.00,332,weatherlink.com 1.10,2013-05-05 12:00:00,
2013-05-05 08:15:00,45.0,32.0,30.34,SSE,162,0.0,3.0,61,0.00,,,0.00,422,weatherlink.com 1.10,2013-05-05 12:15:00,
2013-05-05 08:31:00,46.9,33.0,30.34,SSE,162,2.0,4.0,59,0.00,,,0.00,510,weatherlink.com 1.10,2013-05-05 12:31:00,
2013-05-05 08:46:00,47.4,34.0,30.34,NNE,23,2.0,5.0,59,0.00,,,0.00,471,weatherlink.com 1.10,2013-05-05 12:46:00,
2013-05-05 09:01:00,47.2,34.0,30.34,NNE,23,3.0,5.0,61,0.00,,,0.00,439,weatherlink.com 1.10,2013-05-05 13:01:00,
2013-05-05 09:16:00,47.6,35.0,30.34,NNE,23,2.0,6.0,61,0.00,,,0.00,652,weatherlink.com 1.10,2013-05-05 13:16:00,
2013-05-05 09:31:00,49.8,37.0,30.34,NNE,19,0.0,7.0,62,0.00,,,0.00,659,weatherlink.com 1.10,2013-05-05 13:31:00,
2013-05-05 10:01:00,49.8,37.0,30.33,NNE,16,1.0,6.0,61,0.00,,,0.00,744,weatherlink.com 1.10,2013-05-05 14:01:00,
2013-05-05 10:16:00,50.3,35.0,30.33,NNE,17,3.0,7.0,57,0.00,,,0.00,768,weatherlink.com 1.10,2013-05-05 14:16:00,
2013-05-05 10:31:00,52.1,36.0,30.33,NNE,18,2.0,6.0,55,0.00,,,0.00,796,weatherlink.com 1.10,2013-05-05 14:31:00,
2013-05-05 10:46:00,51.8,35.0,30.33,NNE,28,7.0,7.0,54,0.00,,,0.00,842,weatherlink.com 1.10,2013-05-05 14:46:00,
2013-05-05 11:01:00,53.5,36.0,30.33,NNE,22,6.0,9.0,52,0.00,,,0.00,863,weatherlink.com 1.10,2013-05-05 15:01:00,
2013-05-05 11:16:00,53.5,37.0,30.32,NNE,24,4.0,9.0,53,0.00,,,0.00,882,weatherlink.com 1.10,2013-05-05 15:16:00,
2013-05-05 11:31:00,53.8,36.0,30.32,NNE,19,4.0,10.0,51,0.00,,,0.00,900,weatherlink.com 1.10,2013-05-05 15:31:00,
2013-05-05 11:46:00,55.3,37.0,30.32,NNE,15,6.0,8.0,50,0.00,,,0.00,916,weatherlink.com 1.10,2013-05-05 15:46:00,
2013-05-05 12:01:00,56.8,37.0,30.31,NNE,21,7.0,9.0,47,0.00,,,0.00,930,weatherlink.com 1.10,2013-05-05 16:01:00,
2013-05-05 12:16:00,57.6,34.0,30.31,NNE,13,1.0,6.0,42,0.00,,,0.00,944,weatherlink.com 1.10,2013-05-05 16:16:00,
2013-05-05 12:31:00,57.9,35.0,30.30,NNE,29,4.0,8.0,43,0.00,,,0.00,951,weatherlink.com 1.10,2013-05-05 16:31:00,
2013-05-05 12:46:00,58.0,35.0,30.30,NE,36,3.0,8.0,42,0.00,,,0.00,951,weatherlink.com 1.10,2013-05-05 16:46:00,
2013-05-05 13:01:00,57.9,34.0,30.30,NE,44,5.0,10.0,41,0.00,,,0.00,949,weatherlink.com 1.10,2013-05-05 17:01:00,
2013-05-05 13:16:00,60.6,34.0,30.29,NE,36,8.0,8.0,37,0.00,,,0.00,949,weatherlink.com 1.10,2013-05-05 17:16:00,
2013-05-05 13:31:00,62.3,36.0,30.29,NE,54,0.0,8.0,37,0.00,,,0.00,939,weatherlink.com 1.10,2013-05-05 17:31:00,
2013-05-05 13:46:00,60.7,36.0,30.29,ENE,65,2.0,9.0,40,0.00,,,0.00,926,weatherlink.com 1.10,2013-05-05 17:46:00,
2013-05-05 14:01:00,61.3,35.0,30.29,ENE,57,3.0,9.0,38,0.00,,,0.00,909,weatherlink.com 1.10,2013-05-05 18:01:00,
2013-05-05 14:16:00,60.9,35.0,30.28,East,87,2.0,9.0,38,0.00,,,0.00,886,weatherlink.com 1.10,2013-05-05 18:16:00,
2013-05-05 14:32:00,62.4,35.0,30.28,ENE,74,9.0,10.0,36,0.00,,,0.00,870,weatherlink.com 1.10,2013-05-05 18:32:00,
2013-05-05 14:47:00,62.2,35.0,30.27,ENE,62,3.0,9.0,37,0.00,,,0.00,838,weatherlink.com 1.10,2013-05-05 18:47:00,
2013-05-05 15:02:00,64.0,36.0,30.27,East,81,5.0,9.0,35,0.00,,,0.00,812,weatherlink.com 1.10,2013-05-05 19:02:00,
2013-05-05 15:17:00,65.2,35.0,30.27,East,98,2.0,9.0,33,0.00,,,0.00,780,weatherlink.com 1.10,2013-05-05 19:17:00,
2013-05-05 15:32:00,64.1,35.0,30.26,ESE,102,3.0,9.0,34,0.00,,,0.00,747,weatherlink.com 1.10,2013-05-05 19:32:00,
2013-05-05 15:47:00,65.8,34.0,30.26,SSE,159,1.0,10.0,31,0.00,,,0.00,714,weatherlink.com 1.10,2013-05-05 19:47:00,
2013-05-05 16:02:00,66.1,35.0,30.25,SSE,161,3.0,12.0,32,0.00,,,0.00,675,weatherlink.com 1.10,2013-05-05 20:02:00,
2013-05-05 16:17:00,67.6,34.0,30.25,SW,227,4.0,9.0,29,0.00,,,0.00,633,weatherlink.com 1.10,2013-05-05 20:17:00,
2013-05-05 16:32:00,65.9,34.0,30.25,SSE,160,8.0,12.0,30,0.00,,,0.00,591,weatherlink.com 1.10,2013-05-05 20:32:00,
2013-05-05 16:47:00,66.2,35.0,30.25,South,176,4.0,9.0,32,0.00,,,0.00,545,weatherlink.com 1.10,2013-05-05 20:47:00,
2013-05-05 17:02:00,65.6,36.0,30.25,South,175,6.0,11.0,33,0.00,,,0.00,499,weatherlink.com 1.10,2013-05-05 21:02:00,
2013-05-05 17:17:00,65.7,36.0,30.25,WSW,255,2.0,11.0,34,0.00,,,0.00,452,weatherlink.com 1.10,2013-05-05 21:17:00,
2013-05-05 17:32:00,63.9,38.0,30.25,SSW,203,6.0,14.0,38,0.00,,,0.00,404,weatherlink.com 1.10,2013-05-05 21:32:00,
2013-05-05 17:47:00,64.0,39.0,30.25,SSW,198,7.0,11.0,40,0.00,,,0.00,353,weatherlink.com 1.10,2013-05-05 21:47:00,
2013-05-05 18:02:00,62.4,38.0,30.25,South,191,10.0,16.0,41,0.00,,,0.00,302,weatherlink.com 1.10,2013-05-05 22:02:00,
2013-05-05 18:17:00,61.5,38.0,30.25,South,178,13.0,16.0,42,0.00,,,0.00,250,weatherlink.com 1.10,2013-05-05 22:17:00,
2013-05-05 18:32:00,60.8,38.0,30.25,SSW,197,4.0,16.0,43,0.00,,,0.00,188,weatherlink.com 1.10,2013-05-05 22:32:00,
2013-05-05 18:47:00,59.6,37.0,30.25,SSW,204,6.0,16.0,44,0.00,,,0.00,134,weatherlink.com 1.10,2013-05-05 22:47:00,
2013-05-05 19:02:00,58.4,37.0,30.25,South,182,5.0,15.0,46,0.00,,,0.00,83,weatherlink.com 1.10,2013-05-05 23:02:00,
2013-05-05 19:17:00,57.4,38.0,30.26,South,186,5.0,14.0,48,0.00,,,0.00,42,weatherlink.com 1.10,2013-05-05 23:17:00,
2013-05-05 19:32:00,56.1,37.0,30.26,South,188,8.0,15.0,50,0.00,,,0.00,19,weatherlink.com 1.10,2013-05-05 23:32:00,
2013-05-05 19:47:00,54.4,37.0,30.26,South,186,11.0,18.0,52,0.00,,,0.00,9,weatherlink.com 1.10,2013-05-05 23:47:00,
2013-05-05 20:02:00,53.1,37.0,30.26,South,169,9.0,15.0,54,0.00,,,0.00,0,weatherlink.com 1.10,2013-05-06 00:02:00,
2013-05-05 20:17:00,52.3,36.0,30.26,SE,146,9.0,17.0,55,0.00,,,0.00,0,weatherlink.com 1.10,2013-05-06 00:17:00,
2013-05-05 20:32:00,51.9,36.0,30.27,SSE,148,5.0,16.0,56,0.00,,,0.00,0,weatherlink.com 1.10,2013-05-06 00:32:00,
2013-05-05 20:47:00,51.6,37.0,30.27,South,173,6.0,14.0,57,0.00,,,0.00,0,weatherlink.com 1.10,2013-05-06 00:47:00,
2013-05-05 21:02:00,51.5,37.0,30.27,SSE,157,6.0,9.0,58,0.00,,,0.00,0,weatherlink.com 1.10,2013-05-06 01:02:00,
2013-05-05 21:17:00,50.5,37.0,30.27,SSE,163,5.0,10.0,60,0.00,,,0.00,0,weatherlink.com 1.10,2013-05-06 01:17:00,
2013-05-05 21:32:00,50.8,36.0,30.27,SE,146,5.0,9.0,58,0.00,,,0.00,0,weatherlink.com 1.10,2013-05-06 01:32:00,
2013-05-05 21:47:00,50.2,37.0,30.28,SSW,195,6.0,12.0,62,0.00,,,0.00,0,weatherlink.com 1.10,2013-05-06 01:47:00,
2013-05-05 22:02:00,49.2,38.0,30.28,SSE,166,4.0,14.0,65,0.00,,,0.00,0,weatherlink.com 1.10,2013-05-06 02:02:00,
2013-05-05 22:17:00,48.8,37.0,30.27,SSE,166,6.0,8.0,65,0.00,,,0.00,0,weatherlink.com 1.10,2013-05-06 02:17:00,
2013-05-05 22:32:00,49.4,37.0,30.28,SE,145,2.0,4.0,63,0.00,,,0.00,0,weatherlink.com 1.10,2013-05-06 02:32:00,
2013-05-05 22:47:00,48.7,37.0,30.27,SE,145,3.0,4.0,65,0.00,,,0.00,0,weatherlink.com 1.10,2013-05-06 02:47:00,
2013-05-05 23:02:00,47.5,38.0,30.27,SE,144,1.0,5.0,69,0.00,,,0.00,0,weatherlink.com 1.10,2013-05-06 03:02:00,
2013-05-05 23:17:00,46.4,37.0,30.28,SE,144,0.0,0.0,71,0.00,,,0.00,0,weatherlink.com 1.10,2013-05-06 03:17:00,
2013-05-05 23:32:00,46.2,38.0,30.27,SE,140,1.0,5.0,73,0.00,,,0.00,0,weatherlink.com 1.10,2013-05-06 03:32:00,
2013-05-05 23:47:00,45.2,39.0,30.27,SE,131,2.0,5.0,79,0.00,,,0.00,0,weatherlink.com 1.10,2013-05-06 03:47:00,